CW6054 Weather Reports


time (UTC)temp
C
wind
direction
speed
KPH
gust
KPH
rain 1hr
cm
rain 24hr
cm
rain mn
cm
humidity
%
barometer
mb
20190823213049 17 67 1.6 9.7 0.00 0.00 0.00 70 1023.6
20190823210049 18 51 0.0 0.0 0.00 0.00 0.00 66 1023.5
20190823204050 18 87 0.0 6.4 0.00 0.00 0.00 64 1023.4
20190823200050 18 62 0.0 4.8 0.00 0.00 0.00 63 1023.4
20190823195050 19 67 0.0 8.0 0.00 0.00 0.00 63 1023.5
20190823194050 19 44 0.0 1.6 0.00 0.00 0.00 63 1023.5
20190823193050 19 54 0.0 1.6 0.00 0.00 0.00 62 1023.6
20190823191050 20 57 0.0 0.0 0.00 0.00 0.00 62 1023.5
20190823190050 20 65 0.0 0.0 0.00 0.00 0.00 60 1023.5
20190823185050 20 66 0.0 1.6 0.00 0.00 0.00 60 1023.4
20190823184052 21 38 0.0 3.2 0.00 0.00 0.00 58 1023.4
20190823183050 21 44 0.0 0.0 0.00 0.00 0.00 57 1023.3
20190823175050 22 36 0.0 4.8 0.00 0.00 0.00 54 1023.1
20190823173050 23 28 0.0 1.6 0.00 0.00 0.00 52 1023.0
20190823172050 23 20 0.0 1.6 0.00 0.00 0.00 51 1023.0
20190823165050 25 36 0.0 11.3 0.00 0.00 0.00 48 1023.1
20190823160050 25 31 0.0 4.8 0.00 0.00 0.00 43 1023.3
20190823155050 26 338 0.0 0.0 0.00 0.00 0.00 46 1023.5
20190823153050 26 355 0.0 1.6 0.00 0.00 0.00 43 1023.5
20190823152050 26 289 0.0 3.2 0.00 0.00 0.00 43 1023.6
20190823144050 26 20 0.0 4.8 0.00 0.00 0.00 46 1023.8
20190823142051 26 10 0.0 6.4 0.00 0.00 0.00 45 1023.8
20190823133050 26 231 0.0 3.2 0.00 0.00 0.00 44 1024.0
20190823130051 27 265 1.6 6.4 0.00 0.00 0.00 44 1024.1
20190823124051 26 236 0.0 8.0 0.00 0.00 0.00 53 1024.2
20190823123051 26 195 0.0 4.8 0.00 0.00 0.00 49 1024.3
20190823120051 26 302 0.0 0.0 0.00 0.00 0.00 47 1024.5
20190823113051 25 5 0.0 8.0 0.00 0.00 0.00 53 1024.7
20190823112051 25 108 0.0 4.8 0.00 0.00 0.00 49 1024.7
20190823105051 25 317 0.0 3.2 0.00 0.00 0.00 49 1025.0
20190823103059 25 198 3.2 9.7 0.00 0.00 0.00 50 1025.0
20190823101051 23 240 4.8 11.3 0.00 0.00 0.00 52 1025.2
20190823100051 23 306 0.0 8.0 0.00 0.00 0.00 52 1025.2
20190823095051 23 198 0.0 0.0 0.00 0.00 0.00 56 1025.1
20190823094051 22 175 0.0 1.6 0.00 0.00 0.00 57 1025.2
20190823092051 22 258 0.0 4.8 0.00 0.00 0.00 59 1025.2
20190823091051 21 270 3.2 8.0 0.00 0.00 0.00 62 1025.2
20190823085051 20 175 0.0 6.4 0.00 0.00 0.00 68 1025.1
20190823083051 20 331 0.0 0.0 0.00 0.00 0.00 73 1025.1
20190823075051 16 199 0.0 0.0 0.00 0.00 0.00 86 1024.9
20190823064051 13 29 0.0 0.0 0.00 0.00 0.00 93 1024.8
20190823060051 12 29 0.0 0.0 0.00 0.00 0.00 93 1024.6
20190823055051 11 29 0.0 0.0 0.00 0.00 0.00 92 1024.6
20190823054051 11 29 0.0 0.0 0.00 0.00 0.00 92 1024.6
20190823053051 11 29 0.0 0.0 0.00 0.00 0.00 92 1024.5
20190823052051 11 29 0.0 0.0 0.00 0.00 0.00 91 1024.5
20190823044051 11 29 0.0 0.0 0.00 0.00 0.00 90 1024.2
20190823043052 11 29 0.0 0.0 0.00 0.00 0.00 90 1024.1
20190823041051 11 29 0.0 0.0 0.00 0.00 0.00 90 1024.1
20190823040052 11 29 0.0 0.0 0.00 0.00 0.00 89 1024.0
20190823033052 11 29 0.0 0.0 0.00 0.00 0.00 88 1024.0
20190823031051 12 29 0.0 0.0 0.00 0.00 0.00 88 1024.0
20190823023052 12 29 0.0 0.0 0.00 0.00 0.00 87 1024.3
20190823014052 13 29 0.0 0.0 0.00 0.00 0.00 85 1024.0
20190823013052 13 29 0.0 0.0 0.00 0.00 0.00 85 1024.0
20190823012052 13 29 0.0 0.0 0.00 0.00 0.00 84 1024.0
20190823011052 13 29 0.0 0.0 0.00 0.00 0.00 84 1024.0
20190823005052 14 29 0.0 0.0 0.00 0.00 0.00 83 1024.0
20190823004052 14 29 0.0 0.0 0.00 0.00 0.00 83 1024.0
20190823002052 14 29 0.0 0.0 0.00 0.00 0.00 83 1024.0
20190823001052 14 29 0.0 0.0 0.00 0.00 0.00 83 1024.0
20190823000052 14 29 0.0 0.0 0.00 0.00 0.00 83 1024.0
20190822235052 14 30 0.0 0.0 0.00 0.00 0.00 84 1024.0
20190822233053 14 46 0.0 0.0 0.00 0.00 0.00 82 1024.0
20190822232052 14 46 0.0 0.0 0.00 0.00 0.00 82 1023.9
20190822230052 14 46 0.0 0.0 0.00 0.00 0.00 81 1023.9
20190822225052 15 46 0.0 0.0 0.00 0.00 0.00 80 1023.9
20190822222052 15 46 0.0 0.0 0.00 0.00 0.00 78 1023.9
20190822221052 15 46 0.0 0.0 0.00 0.00 0.00 78 1023.8